BAW600 EGLL-LIPZ
Flight info
| Callsign | BAW600 |
|---|---|
| Flight time | 1h 53m |
| Altitude | 37000 |
| Route | MAXIT Y803 MID L612 BOGNA UL612 VEULE DCT TEPRI DCT POGZI DCT GELTA DCT LUVAL DCT SHARA DCT DEVDI DCT RIPUS DCT RESIA DCT ADOSA L612 ALBET |
| Aircraft | A320/M-SDE3FGHIJ1KRWXY/SB1 |
Departure
| Time | 2026-05-06 07:34 |
|---|---|
| Airport | London Heathrow Airport (EGLL) |
Arrival
| Time | 2026-05-06 09:28 |
|---|---|
| Airport | Venice Marco Polo Airport (LIPZ) |
| Time | Latitude | Longitude | Altitude | Speed | Heading |
|---|---|---|---|---|---|
| 2026-05-06 07:04 | 51.47360 | -0.48589 | 87 ft | 0 kts | 270° |
| 2026-05-06 07:25 | 51.47360 | -0.48579 | 89 ft | 2 kts | 270° |
| 2026-05-06 07:25 | 51.47360 | -0.48547 | 87 ft | 3 kts | 270° |
| 2026-05-06 07:25 | 51.47360 | -0.48516 | 87 ft | 3 kts | 268° |
| 2026-05-06 07:26 | 51.47363 | -0.48488 | 88 ft | 3 kts | 218° |
| 2026-05-06 07:26 | 51.47379 | -0.48477 | 90 ft | 2 kts | 181° |
| 2026-05-06 07:26 | 51.47390 | -0.48477 | 88 ft | 4 kts | 180° |
| 2026-05-06 07:28 | 51.47389 | -0.48477 | 88 ft | 1 kts | 180° |
| 2026-05-06 07:29 | 51.47370 | -0.48477 | 91 ft | 6 kts | 180° |
| 2026-05-06 07:29 | 51.47297 | -0.48476 | 87 ft | 15 kts | 179° |
| 2026-05-06 07:29 | 51.47173 | -0.48474 | 87 ft | 19 kts | 179° |
| 2026-05-06 07:29 | 51.47031 | -0.48473 | 87 ft | 22 kts | 179° |
| 2026-05-06 07:30 | 51.46881 | -0.48473 | 88 ft | 21 kts | 180° |
| 2026-05-06 07:30 | 51.46733 | -0.48471 | 88 ft | 20 kts | 180° |
| 2026-05-06 07:30 | 51.46620 | -0.48470 | 87 ft | 9 kts | 179° |
| 2026-05-06 07:30 | 51.46563 | -0.48469 | 88 ft | 8 kts | 179° |
| 2026-05-06 07:31 | 51.46526 | -0.48468 | 89 ft | 8 kts | 179° |
| 2026-05-06 07:31 | 51.46483 | -0.48462 | 88 ft | 5 kts | 154° |
| 2026-05-06 07:31 | 51.46476 | -0.48406 | 89 ft | 4 kts | 88° |
| 2026-05-06 07:31 | 51.46477 | -0.48401 | 89 ft | 0 kts | 89° |
| 2026-05-06 07:33 | 51.46477 | -0.48398 | 89 ft | 2 kts | 89° |
| 2026-05-06 07:33 | 51.46479 | -0.48130 | 88 ft | 58 kts | 89° |
| 2026-05-06 07:33 | 51.46483 | -0.47138 | 87 ft | 117 kts | 89° |
| 2026-05-06 07:34 | 51.46488 | -0.45576 | 88 ft | 162 kts | 89° |
| 2026-05-06 07:34 | 51.46495 | -0.43711 | 541 ft | 166 kts | 91° |
| 2026-05-06 07:34 | 51.46448 | -0.41874 | 1269 ft | 167 kts | 103° |
| 2026-05-06 07:34 | 51.45864 | -0.40111 | 1580 ft | 194 kts | 126° |
| 2026-05-06 07:35 | 51.44961 | -0.38386 | 1959 ft | 212 kts | 130° |
| 2026-05-06 07:35 | 51.43602 | -0.37116 | 2237 ft | 244 kts | 158° |
| 2026-05-06 07:35 | 51.41942 | -0.36233 | 2842 ft | 259 kts | 160° |
| 2026-05-06 07:35 | 51.40138 | -0.35667 | 3515 ft | 272 kts | 184° |
| 2026-05-06 07:36 | 51.38418 | -0.36541 | 4336 ft | 274 kts | 211° |
| 2026-05-06 07:36 | 51.36867 | -0.37919 | 5171 ft | 277 kts | 211° |
| 2026-05-06 07:36 | 51.35152 | -0.39334 | 6160 ft | 277 kts | 209° |
| 2026-05-06 07:36 | 51.33411 | -0.40693 | 7090 ft | 279 kts | 208° |
| 2026-05-06 07:37 | 51.31654 | -0.42063 | 7928 ft | 283 kts | 208° |
| 2026-05-06 07:37 | 51.29868 | -0.43464 | 8725 ft | 289 kts | 208° |
| 2026-05-06 07:37 | 51.28049 | -0.44884 | 9505 ft | 293 kts | 207° |
| 2026-05-06 07:37 | 51.26200 | -0.46334 | 10239 ft | 300 kts | 208° |
| 2026-05-06 07:38 | 51.24259 | -0.47881 | 10470 ft | 323 kts | 208° |
| 2026-05-06 07:38 | 51.22209 | -0.49518 | 10943 ft | 334 kts | 208° |
| 2026-05-06 07:38 | 51.20113 | -0.51162 | 11628 ft | 338 kts | 207° |
| 2026-05-06 07:38 | 51.17991 | -0.52807 | 12351 ft | 340 kts | 207° |
| 2026-05-06 07:39 | 51.15849 | -0.54456 | 13095 ft | 342 kts | 207° |
| 2026-05-06 07:39 | 51.13697 | -0.56109 | 13836 ft | 344 kts | 207° |
| 2026-05-06 07:39 | 51.11534 | -0.57768 | 14484 ft | 347 kts | 207° |
| 2026-05-06 07:39 | 51.09326 | -0.59352 | 15112 ft | 350 kts | 200° |
| 2026-05-06 07:40 | 51.06931 | -0.60175 | 15723 ft | 356 kts | 186° |
| 2026-05-06 07:40 | 51.04448 | -0.59980 | 16312 ft | 362 kts | 170° |
| 2026-05-06 07:40 | 51.02044 | -0.58740 | 16907 ft | 367 kts | 155° |
| 2026-05-06 07:40 | 50.99861 | -0.56598 | 17509 ft | 371 kts | 146° |
| 2026-05-06 07:41 | 50.97717 | -0.54287 | 18106 ft | 374 kts | 147° |
| 2026-05-06 07:41 | 50.95543 | -0.51966 | 18649 ft | 378 kts | 147° |
| 2026-05-06 07:41 | 50.93352 | -0.49641 | 19198 ft | 380 kts | 147° |
| 2026-05-06 07:41 | 50.91144 | -0.47303 | 19766 ft | 383 kts | 147° |
| 2026-05-06 07:42 | 50.88924 | -0.44947 | 20347 ft | 385 kts | 147° |
| 2026-05-06 07:42 | 50.86692 | -0.42576 | 20905 ft | 387 kts | 147° |
| 2026-05-06 07:42 | 50.84448 | -0.40197 | 21465 ft | 390 kts | 148° |
| 2026-05-06 07:42 | 50.82187 | -0.37801 | 22008 ft | 392 kts | 148° |
| 2026-05-06 07:43 | 50.79914 | -0.35397 | 22561 ft | 394 kts | 148° |
| 2026-05-06 07:43 | 50.77625 | -0.32984 | 23107 ft | 396 kts | 148° |
| 2026-05-06 07:43 | 50.75326 | -0.30565 | 23637 ft | 399 kts | 148° |
| 2026-05-06 07:43 | 50.73006 | -0.28125 | 24086 ft | 401 kts | 148° |
| 2026-05-06 07:44 | 50.70678 | -0.25674 | 24524 ft | 403 kts | 148° |
| 2026-05-06 07:44 | 50.68337 | -0.23214 | 24952 ft | 406 kts | 148° |
| 2026-05-06 07:44 | 50.65982 | -0.20739 | 25374 ft | 408 kts | 148° |
| 2026-05-06 07:44 | 50.63612 | -0.18254 | 25783 ft | 410 kts | 148° |
| 2026-05-06 07:45 | 50.61226 | -0.15758 | 26189 ft | 413 kts | 147° |
| 2026-05-06 07:45 | 50.58827 | -0.13251 | 26593 ft | 415 kts | 148° |
| 2026-05-06 07:45 | 50.56417 | -0.10731 | 26985 ft | 417 kts | 148° |
| 2026-05-06 07:45 | 50.53995 | -0.08203 | 27382 ft | 419 kts | 147° |
| 2026-05-06 07:46 | 50.51559 | -0.05667 | 27747 ft | 421 kts | 148° |
| 2026-05-06 07:46 | 50.49107 | -0.03118 | 28133 ft | 424 kts | 147° |
| 2026-05-06 07:46 | 50.46642 | -0.00558 | 28494 ft | 426 kts | 147° |
| 2026-05-06 07:46 | 50.44165 | 0.02014 | 28862 ft | 428 kts | 147° |
| 2026-05-06 07:47 | 50.41674 | 0.04593 | 29214 ft | 430 kts | 147° |
| 2026-05-06 07:47 | 50.39167 | 0.07183 | 29578 ft | 432 kts | 147° |
| 2026-05-06 07:47 | 50.36651 | 0.09783 | 29953 ft | 435 kts | 147° |
| 2026-05-06 07:47 | 50.34118 | 0.12399 | 30262 ft | 437 kts | 147° |
| 2026-05-06 07:48 | 50.31576 | 0.15028 | 30559 ft | 439 kts | 147° |
| 2026-05-06 07:48 | 50.29020 | 0.17668 | 30865 ft | 441 kts | 147° |
| 2026-05-06 07:48 | 50.26483 | 0.20284 | 31165 ft | 443 kts | 147° |
| 2026-05-06 07:48 | 50.23909 | 0.22929 | 31561 ft | 442 kts | 147° |
| 2026-05-06 07:49 | 50.21340 | 0.25561 | 32002 ft | 441 kts | 147° |
| 2026-05-06 07:49 | 50.18775 | 0.28188 | 32405 ft | 441 kts | 146° |
| 2026-05-06 07:49 | 50.16216 | 0.30815 | 32825 ft | 440 kts | 146° |
| 2026-05-06 07:49 | 50.13661 | 0.33438 | 33239 ft | 439 kts | 146° |
| 2026-05-06 07:50 | 50.11111 | 0.36051 | 33650 ft | 439 kts | 146° |
| 2026-05-06 07:50 | 50.08556 | 0.38666 | 34031 ft | 439 kts | 146° |
| 2026-05-06 07:50 | 50.06008 | 0.41276 | 34341 ft | 439 kts | 146° |
| 2026-05-06 07:50 | 50.03461 | 0.43888 | 34641 ft | 439 kts | 146° |
| 2026-05-06 07:51 | 50.00914 | 0.46497 | 34942 ft | 439 kts | 147° |
| 2026-05-06 07:51 | 49.98366 | 0.49101 | 35225 ft | 439 kts | 147° |
| 2026-05-06 07:51 | 49.95814 | 0.51699 | 35509 ft | 439 kts | 147° |
| 2026-05-06 07:51 | 49.93260 | 0.54291 | 35787 ft | 439 kts | 147° |
| 2026-05-06 07:52 | 49.90707 | 0.56876 | 36072 ft | 438 kts | 147° |
| 2026-05-06 07:52 | 49.88152 | 0.59464 | 36352 ft | 438 kts | 147° |
| 2026-05-06 07:52 | 49.85696 | 0.62251 | 36620 ft | 438 kts | 139° |
| 2026-05-06 07:52 | 49.83545 | 0.65591 | 36867 ft | 438 kts | 133° |
| 2026-05-06 07:53 | 49.79455 | 0.72588 | 36943 ft | 437 kts | 133° |
| 2026-05-06 07:53 | 49.75355 | 0.79509 | 36939 ft | 436 kts | 133° |
| 2026-05-06 07:54 | 49.71259 | 0.86412 | 36937 ft | 435 kts | 133° |
| 2026-05-06 07:54 | 49.67168 | 0.93306 | 36937 ft | 435 kts | 133° |
| 2026-05-06 07:55 | 49.63077 | 1.00180 | 36931 ft | 435 kts | 133° |
| 2026-05-06 07:55 | 49.58982 | 1.07041 | 36928 ft | 435 kts | 133° |
| 2026-05-06 07:56 | 49.54883 | 1.13890 | 36928 ft | 435 kts | 133° |
| 2026-05-06 07:56 | 49.50782 | 1.20731 | 36928 ft | 434 kts | 134° |
| 2026-05-06 07:57 | 49.46673 | 1.27540 | 36929 ft | 434 kts | 133° |
| 2026-05-06 07:57 | 49.42562 | 1.34337 | 36930 ft | 434 kts | 133° |
| 2026-05-06 07:58 | 49.38456 | 1.41125 | 36930 ft | 434 kts | 133° |
| 2026-05-06 07:58 | 49.34348 | 1.47904 | 36930 ft | 434 kts | 134° |
| 2026-05-06 07:59 | 49.30235 | 1.54680 | 36927 ft | 434 kts | 134° |
| 2026-05-06 07:59 | 49.26149 | 1.61389 | 36926 ft | 433 kts | 134° |
| 2026-05-06 08:00 | 49.22002 | 1.68171 | 36917 ft | 433 kts | 134° |
| 2026-05-06 08:00 | 49.17907 | 1.74851 | 36909 ft | 433 kts | 134° |
| 2026-05-06 08:01 | 49.13749 | 1.81611 | 36903 ft | 434 kts | 134° |
| 2026-05-06 08:01 | 49.09642 | 1.88266 | 36906 ft | 434 kts | 134° |
| 2026-05-06 08:02 | 49.05474 | 1.95000 | 36901 ft | 434 kts | 134° |
| 2026-05-06 08:02 | 49.01331 | 2.01700 | 36901 ft | 434 kts | 134° |
| 2026-05-06 08:03 | 48.97179 | 2.08397 | 36888 ft | 435 kts | 134° |
| 2026-05-06 08:03 | 48.93041 | 2.15037 | 36886 ft | 436 kts | 135° |
| 2026-05-06 08:04 | 48.88858 | 2.21735 | 36893 ft | 437 kts | 134° |
| 2026-05-06 08:04 | 48.84668 | 2.28441 | 36896 ft | 438 kts | 135° |
| 2026-05-06 08:05 | 48.80470 | 2.35143 | 36899 ft | 438 kts | 135° |
| 2026-05-06 08:05 | 48.76260 | 2.41831 | 36904 ft | 439 kts | 135° |
| 2026-05-06 08:06 | 48.72035 | 2.48512 | 36910 ft | 439 kts | 135° |
| 2026-05-06 08:06 | 48.67815 | 2.55178 | 36911 ft | 438 kts | 135° |
| 2026-05-06 08:07 | 48.63604 | 2.61823 | 36917 ft | 437 kts | 135° |
| 2026-05-06 08:07 | 48.59401 | 2.68446 | 36917 ft | 436 kts | 134° |
| 2026-05-06 08:08 | 48.57531 | 2.72049 | 36917 ft | 437 kts | 123° |
| 2026-05-06 08:08 | 48.56123 | 2.76112 | 36916 ft | 438 kts | 112° |
| 2026-05-06 08:08 | 48.54891 | 2.85094 | 36913 ft | 441 kts | 94° |
| 2026-05-06 08:09 | 48.54610 | 2.94327 | 36901 ft | 440 kts | 94° |
| 2026-05-06 08:09 | 48.54290 | 3.03550 | 36893 ft | 440 kts | 95° |
| 2026-05-06 08:10 | 48.53960 | 3.12783 | 36885 ft | 440 kts | 95° |
| 2026-05-06 08:10 | 48.53632 | 3.22009 | 36882 ft | 440 kts | 95° |
| 2026-05-06 08:11 | 48.53300 | 3.31232 | 36873 ft | 440 kts | 95° |
| 2026-05-06 08:11 | 48.53018 | 3.38953 | 36874 ft | 440 kts | 95° |
| 2026-05-06 08:12 | 48.52675 | 3.48160 | 36870 ft | 440 kts | 95° |
| 2026-05-06 08:12 | 48.52319 | 3.57370 | 36868 ft | 439 kts | 95° |
| 2026-05-06 08:13 | 48.51949 | 3.66572 | 36860 ft | 440 kts | 95° |
| 2026-05-06 08:13 | 48.51578 | 3.75721 | 36857 ft | 440 kts | 95° |
| 2026-05-06 08:14 | 48.51207 | 3.84919 | 36856 ft | 440 kts | 95° |
| 2026-05-06 08:14 | 48.50822 | 3.94181 | 36853 ft | 440 kts | 95° |
| 2026-05-06 08:15 | 48.50257 | 4.03294 | 36851 ft | 438 kts | 104° |
| 2026-05-06 08:15 | 48.48676 | 4.12136 | 36849 ft | 437 kts | 107° |
| 2026-05-06 08:16 | 48.47061 | 4.20970 | 36842 ft | 437 kts | 107° |
| 2026-05-06 08:16 | 48.45454 | 4.29809 | 36841 ft | 437 kts | 107° |
| 2026-05-06 08:17 | 48.43834 | 4.38646 | 36835 ft | 437 kts | 107° |
| 2026-05-06 08:17 | 48.42200 | 4.47470 | 36834 ft | 438 kts | 108° |
| 2026-05-06 08:18 | 48.40557 | 4.56295 | 36828 ft | 438 kts | 108° |
| 2026-05-06 08:18 | 48.38911 | 4.65126 | 36824 ft | 438 kts | 108° |
| 2026-05-06 08:19 | 48.37259 | 4.73961 | 36824 ft | 438 kts | 108° |
| 2026-05-06 08:19 | 48.35597 | 4.82790 | 36824 ft | 439 kts | 108° |
| 2026-05-06 08:20 | 48.33930 | 4.91620 | 36830 ft | 439 kts | 108° |
| 2026-05-06 08:20 | 48.32253 | 5.00436 | 36827 ft | 439 kts | 108° |
| 2026-05-06 08:21 | 48.30556 | 5.09260 | 36828 ft | 439 kts | 109° |
| 2026-05-06 08:21 | 48.28857 | 5.18061 | 36829 ft | 439 kts | 109° |
| 2026-05-06 08:22 | 48.27117 | 5.26850 | 36830 ft | 439 kts | 110° |
| 2026-05-06 08:22 | 48.25353 | 5.35552 | 36827 ft | 439 kts | 110° |
| 2026-05-06 08:23 | 48.23571 | 5.44311 | 36824 ft | 439 kts | 110° |
| 2026-05-06 08:23 | 48.21786 | 5.53071 | 36822 ft | 439 kts | 110° |
| 2026-05-06 08:24 | 48.19995 | 5.61830 | 36826 ft | 439 kts | 110° |
| 2026-05-06 08:24 | 48.18205 | 5.70576 | 36818 ft | 439 kts | 110° |
| 2026-05-06 08:25 | 48.16407 | 5.79341 | 36815 ft | 440 kts | 110° |
| 2026-05-06 08:25 | 48.14603 | 5.88094 | 36812 ft | 440 kts | 110° |
| 2026-05-06 08:26 | 48.12784 | 5.96854 | 36816 ft | 441 kts | 110° |
| 2026-05-06 08:26 | 48.10955 | 6.05611 | 36818 ft | 441 kts | 110° |
| 2026-05-06 08:27 | 48.09122 | 6.14377 | 36817 ft | 442 kts | 110° |
| 2026-05-06 08:27 | 48.07278 | 6.23143 | 36823 ft | 442 kts | 111° |
| 2026-05-06 08:28 | 48.05426 | 6.31900 | 36831 ft | 442 kts | 111° |
| 2026-05-06 08:28 | 48.03568 | 6.40667 | 36829 ft | 443 kts | 111° |
| 2026-05-06 08:29 | 48.01696 | 6.49436 | 36832 ft | 443 kts | 111° |
| 2026-05-06 08:29 | 47.99820 | 6.58209 | 36835 ft | 444 kts | 111° |
| 2026-05-06 08:30 | 47.97931 | 6.66991 | 36841 ft | 444 kts | 112° |
| 2026-05-06 08:30 | 47.95812 | 6.75637 | 36840 ft | 443 kts | 116° |
| 2026-05-06 08:31 | 47.93442 | 6.84102 | 36839 ft | 442 kts | 117° |
| 2026-05-06 08:31 | 47.91047 | 6.92540 | 36835 ft | 442 kts | 117° |
| 2026-05-06 08:32 | 47.88713 | 7.01013 | 36836 ft | 442 kts | 116° |
| 2026-05-06 08:32 | 47.86409 | 7.09509 | 36833 ft | 442 kts | 116° |
| 2026-05-06 08:33 | 47.84096 | 7.17988 | 36837 ft | 442 kts | 117° |
| 2026-05-06 08:33 | 47.81771 | 7.26439 | 36847 ft | 441 kts | 117° |
| 2026-05-06 08:34 | 47.78267 | 7.39086 | 36851 ft | 440 kts | 117° |
| 2026-05-06 08:35 | 47.75925 | 7.47495 | 36850 ft | 440 kts | 117° |
| 2026-05-06 08:35 | 47.73370 | 7.55705 | 36852 ft | 433 kts | 128° |
| 2026-05-06 08:36 | 47.69875 | 7.62895 | 36857 ft | 429 kts | 131° |
| 2026-05-06 08:36 | 47.66333 | 7.70023 | 36855 ft | 428 kts | 131° |
| 2026-05-06 08:37 | 47.62801 | 7.77130 | 36853 ft | 428 kts | 132° |
| 2026-05-06 08:37 | 47.59276 | 7.84216 | 36851 ft | 427 kts | 132° |
| 2026-05-06 08:38 | 47.55742 | 7.91282 | 36843 ft | 427 kts | 132° |
| 2026-05-06 08:38 | 47.52206 | 7.98330 | 36848 ft | 426 kts | 132° |
| 2026-05-06 08:39 | 47.48729 | 8.05240 | 36847 ft | 426 kts | 132° |
| 2026-05-06 08:39 | 47.45274 | 8.12102 | 36848 ft | 426 kts | 133° |
| 2026-05-06 08:40 | 47.41736 | 8.19114 | 36839 ft | 426 kts | 133° |
| 2026-05-06 08:40 | 47.38210 | 8.26068 | 36834 ft | 426 kts | 133° |
| 2026-05-06 08:41 | 47.34653 | 8.33065 | 36824 ft | 426 kts | 133° |
| 2026-05-06 08:41 | 47.31094 | 8.40059 | 36831 ft | 427 kts | 133° |
| 2026-05-06 08:42 | 47.27528 | 8.47057 | 36834 ft | 427 kts | 133° |
| 2026-05-06 08:42 | 47.23972 | 8.54082 | 36836 ft | 428 kts | 132° |
| 2026-05-06 08:43 | 47.20464 | 8.61199 | 36830 ft | 429 kts | 131° |
| 2026-05-06 08:43 | 47.16970 | 8.68314 | 36829 ft | 429 kts | 131° |
| 2026-05-06 08:44 | 47.13458 | 8.75412 | 36823 ft | 429 kts | 132° |
| 2026-05-06 08:44 | 47.09932 | 8.82486 | 36813 ft | 429 kts | 132° |
| 2026-05-06 08:45 | 47.06400 | 8.89554 | 36804 ft | 429 kts | 132° |
| 2026-05-06 08:45 | 47.02868 | 8.96623 | 36804 ft | 431 kts | 132° |
| 2026-05-06 08:46 | 46.99331 | 9.03675 | 36797 ft | 430 kts | 132° |
| 2026-05-06 08:46 | 46.95776 | 9.10728 | 36800 ft | 431 kts | 132° |
| 2026-05-06 08:47 | 46.92215 | 9.17794 | 36798 ft | 431 kts | 132° |
| 2026-05-06 08:47 | 46.88641 | 9.24864 | 36809 ft | 433 kts | 133° |
| 2026-05-06 08:48 | 46.85057 | 9.31933 | 36810 ft | 432 kts | 133° |
| 2026-05-06 08:48 | 46.81464 | 9.39001 | 36820 ft | 434 kts | 133° |
| 2026-05-06 08:49 | 46.77862 | 9.46076 | 36827 ft | 435 kts | 133° |
| 2026-05-06 08:49 | 46.74249 | 9.53168 | 36840 ft | 436 kts | 133° |
| 2026-05-06 08:50 | 46.70626 | 9.60248 | 36857 ft | 436 kts | 133° |
| 2026-05-06 08:50 | 46.66984 | 9.67321 | 36867 ft | 437 kts | 133° |
| 2026-05-06 08:51 | 46.63346 | 9.74405 | 36874 ft | 438 kts | 133° |
| 2026-05-06 08:51 | 46.59688 | 9.81498 | 36884 ft | 438 kts | 133° |
| 2026-05-06 08:52 | 46.56642 | 9.87374 | 36880 ft | 438 kts | 133° |
| 2026-05-06 08:52 | 46.52967 | 9.94449 | 36876 ft | 439 kts | 133° |
| 2026-05-06 08:53 | 46.49289 | 10.01526 | 36871 ft | 439 kts | 133° |
| 2026-05-06 08:53 | 46.45062 | 10.07729 | 36450 ft | 432 kts | 147° |
| 2026-05-06 08:53 | 46.42762 | 10.10503 | 35975 ft | 428 kts | 148° |
| 2026-05-06 08:54 | 46.40470 | 10.13240 | 35528 ft | 425 kts | 148° |
| 2026-05-06 08:54 | 46.38198 | 10.15940 | 35104 ft | 421 kts | 149° |
| 2026-05-06 08:54 | 46.35938 | 10.18623 | 34660 ft | 418 kts | 149° |
| 2026-05-06 08:54 | 46.33695 | 10.21288 | 34206 ft | 416 kts | 150° |
| 2026-05-06 08:55 | 46.31463 | 10.23947 | 33722 ft | 413 kts | 150° |
| 2026-05-06 08:55 | 46.29271 | 10.26573 | 33254 ft | 404 kts | 150° |
| 2026-05-06 08:55 | 46.27138 | 10.29133 | 32822 ft | 394 kts | 150° |
| 2026-05-06 08:55 | 46.25047 | 10.31636 | 32392 ft | 386 kts | 150° |
| 2026-05-06 08:56 | 46.22998 | 10.34078 | 31974 ft | 378 kts | 150° |
| 2026-05-06 08:56 | 46.20990 | 10.36466 | 31575 ft | 370 kts | 151° |
| 2026-05-06 08:56 | 46.19019 | 10.38807 | 31181 ft | 364 kts | 151° |
| 2026-05-06 08:56 | 46.17073 | 10.41104 | 30799 ft | 359 kts | 151° |
| 2026-05-06 08:57 | 46.15155 | 10.43368 | 30425 ft | 353 kts | 151° |
| 2026-05-06 08:57 | 46.13271 | 10.45594 | 30059 ft | 348 kts | 151° |
| 2026-05-06 08:57 | 46.11410 | 10.47792 | 29666 ft | 345 kts | 151° |
| 2026-05-06 08:57 | 46.09556 | 10.49972 | 29321 ft | 343 kts | 151° |
| 2026-05-06 08:58 | 46.07713 | 10.52134 | 28975 ft | 341 kts | 151° |
| 2026-05-06 08:58 | 46.05882 | 10.54288 | 28638 ft | 339 kts | 151° |
| 2026-05-06 08:58 | 46.04065 | 10.56429 | 28317 ft | 337 kts | 150° |
| 2026-05-06 08:58 | 46.02258 | 10.58560 | 27981 ft | 335 kts | 150° |
| 2026-05-06 08:59 | 46.00458 | 10.60676 | 27651 ft | 333 kts | 150° |
| 2026-05-06 08:59 | 45.98664 | 10.62781 | 27306 ft | 332 kts | 150° |
| 2026-05-06 08:59 | 45.96878 | 10.64875 | 26966 ft | 330 kts | 150° |
| 2026-05-06 08:59 | 45.95101 | 10.66962 | 26619 ft | 329 kts | 150° |
| 2026-05-06 09:00 | 45.93336 | 10.69037 | 26277 ft | 327 kts | 150° |
| 2026-05-06 09:00 | 45.91580 | 10.71097 | 25933 ft | 325 kts | 150° |
| 2026-05-06 09:00 | 45.89831 | 10.73140 | 25572 ft | 323 kts | 150° |
| 2026-05-06 09:00 | 45.88090 | 10.75173 | 25215 ft | 321 kts | 149° |
| 2026-05-06 09:01 | 45.86360 | 10.77187 | 24860 ft | 320 kts | 149° |
| 2026-05-06 09:01 | 45.84638 | 10.79193 | 24490 ft | 318 kts | 149° |
| 2026-05-06 09:01 | 45.82925 | 10.81189 | 24131 ft | 317 kts | 149° |
| 2026-05-06 09:01 | 45.81217 | 10.83175 | 23765 ft | 317 kts | 149° |
| 2026-05-06 09:02 | 45.79506 | 10.85171 | 23368 ft | 317 kts | 149° |
| 2026-05-06 09:02 | 45.77801 | 10.87159 | 22978 ft | 314 kts | 148° |
| 2026-05-06 09:02 | 45.76108 | 10.89124 | 22610 ft | 312 kts | 148° |
| 2026-05-06 09:02 | 45.74423 | 10.91076 | 22246 ft | 311 kts | 148° |
| 2026-05-06 09:03 | 45.72752 | 10.93014 | 21881 ft | 308 kts | 148° |
| 2026-05-06 09:03 | 45.71090 | 10.94944 | 21517 ft | 307 kts | 148° |
| 2026-05-06 09:03 | 45.69432 | 10.96865 | 21156 ft | 307 kts | 148° |
| 2026-05-06 09:03 | 45.67769 | 10.98788 | 20792 ft | 307 kts | 148° |
| 2026-05-06 09:04 | 45.66109 | 11.00708 | 20398 ft | 307 kts | 148° |
| 2026-05-06 09:04 | 45.64522 | 11.02782 | 20016 ft | 313 kts | 138° |
| 2026-05-06 09:04 | 45.63225 | 11.05327 | 19619 ft | 320 kts | 129° |
| 2026-05-06 09:04 | 45.62030 | 11.08014 | 19214 ft | 321 kts | 129° |
| 2026-05-06 09:05 | 45.60829 | 11.10697 | 18813 ft | 321 kts | 129° |
| 2026-05-06 09:05 | 45.59623 | 11.13379 | 18425 ft | 320 kts | 129° |
| 2026-05-06 09:05 | 45.58420 | 11.16048 | 18017 ft | 319 kts | 129° |
| 2026-05-06 09:05 | 45.57222 | 11.18707 | 17617 ft | 318 kts | 129° |
| 2026-05-06 09:06 | 45.56032 | 11.21355 | 17233 ft | 315 kts | 129° |
| 2026-05-06 09:06 | 45.54865 | 11.23952 | 16857 ft | 314 kts | 129° |
| 2026-05-06 09:06 | 45.53687 | 11.26572 | 16482 ft | 312 kts | 130° |
| 2026-05-06 09:06 | 45.52518 | 11.29169 | 16106 ft | 310 kts | 130° |
| 2026-05-06 09:07 | 45.51354 | 11.31742 | 15737 ft | 308 kts | 130° |
| 2026-05-06 09:07 | 45.50193 | 11.34308 | 15370 ft | 307 kts | 129° |
| 2026-05-06 09:07 | 45.49034 | 11.36876 | 15002 ft | 308 kts | 129° |
| 2026-05-06 09:07 | 45.47865 | 11.39455 | 14623 ft | 311 kts | 129° |
| 2026-05-06 09:08 | 45.46687 | 11.42049 | 14249 ft | 313 kts | 129° |
| 2026-05-06 09:08 | 45.45502 | 11.44653 | 13873 ft | 314 kts | 129° |
| 2026-05-06 09:08 | 45.44315 | 11.47261 | 13466 ft | 314 kts | 129° |
| 2026-05-06 09:08 | 45.43131 | 11.49866 | 13075 ft | 313 kts | 128° |
| 2026-05-06 09:09 | 45.41794 | 11.52288 | 12779 ft | 308 kts | 138° |
| 2026-05-06 09:09 | 45.40375 | 11.54522 | 12581 ft | 302 kts | 137° |
| 2026-05-06 09:09 | 45.38979 | 11.56739 | 12243 ft | 300 kts | 137° |
| 2026-05-06 09:09 | 45.37596 | 11.58940 | 11980 ft | 296 kts | 137° |
| 2026-05-06 09:10 | 45.36226 | 11.61117 | 11718 ft | 295 kts | 135° |
| 2026-05-06 09:10 | 45.35096 | 11.63573 | 11458 ft | 301 kts | 119° |
| 2026-05-06 09:10 | 45.34501 | 11.66451 | 11237 ft | 308 kts | 101° |
| 2026-05-06 09:10 | 45.34490 | 11.69511 | 10976 ft | 311 kts | 89° |
| 2026-05-06 09:11 | 45.34642 | 11.72575 | 10707 ft | 311 kts | 89° |
| 2026-05-06 09:11 | 45.34786 | 11.75652 | 10496 ft | 314 kts | 89° |
| 2026-05-06 09:11 | 45.34928 | 11.78745 | 10177 ft | 313 kts | 89° |
| 2026-05-06 09:11 | 45.34849 | 11.81776 | 9828 ft | 301 kts | 104° |
| 2026-05-06 09:12 | 45.34229 | 11.84567 | 9581 ft | 295 kts | 119° |
| 2026-05-06 09:12 | 45.33149 | 11.86999 | 9294 ft | 288 kts | 134° |
| 2026-05-06 09:12 | 45.31821 | 11.89077 | 9148 ft | 280 kts | 140° |
| 2026-05-06 09:12 | 45.30198 | 11.90430 | 9015 ft | 267 kts | 169° |
| 2026-05-06 09:13 | 45.28391 | 11.90432 | 8872 ft | 256 kts | 199° |
| 2026-05-06 09:13 | 45.26888 | 11.89247 | 8698 ft | 245 kts | 221° |
| 2026-05-06 09:13 | 45.25623 | 11.87630 | 8568 ft | 245 kts | 222° |
| 2026-05-06 09:13 | 45.24354 | 11.86023 | 8434 ft | 244 kts | 221° |
| 2026-05-06 09:14 | 45.23084 | 11.84424 | 8307 ft | 244 kts | 221° |
| 2026-05-06 09:14 | 45.21816 | 11.82832 | 8188 ft | 245 kts | 221° |
| 2026-05-06 09:14 | 45.20532 | 11.81223 | 8044 ft | 244 kts | 221° |
| 2026-05-06 09:14 | 45.19266 | 11.79635 | 7918 ft | 243 kts | 221° |
| 2026-05-06 09:15 | 45.17999 | 11.78045 | 7791 ft | 243 kts | 221° |
| 2026-05-06 09:15 | 45.16738 | 11.76460 | 7665 ft | 242 kts | 221° |
| 2026-05-06 09:15 | 45.15478 | 11.74883 | 7540 ft | 242 kts | 221° |
| 2026-05-06 09:15 | 45.14215 | 11.73304 | 7414 ft | 242 kts | 221° |
| 2026-05-06 09:16 | 45.12955 | 11.71735 | 7289 ft | 240 kts | 219° |
| 2026-05-06 09:16 | 45.11508 | 11.70719 | 7163 ft | 232 kts | 188° |
| 2026-05-06 09:16 | 45.09959 | 11.71077 | 7038 ft | 227 kts | 154° |
| 2026-05-06 09:16 | 45.08809 | 11.72575 | 6922 ft | 227 kts | 133° |
| 2026-05-06 09:17 | 45.07783 | 11.74273 | 6792 ft | 227 kts | 135° |
| 2026-05-06 09:17 | 45.06834 | 11.76054 | 6670 ft | 230 kts | 116° |
| 2026-05-06 09:17 | 45.06602 | 11.78294 | 6547 ft | 237 kts | 81° |
| 2026-05-06 09:17 | 45.07312 | 11.80378 | 6428 ft | 239 kts | 46° |
| 2026-05-06 09:18 | 45.08552 | 11.81958 | 6306 ft | 241 kts | 41° |
| 2026-05-06 09:18 | 45.09811 | 11.83518 | 6173 ft | 241 kts | 41° |
| 2026-05-06 09:18 | 45.11068 | 11.85081 | 6048 ft | 241 kts | 41° |
| 2026-05-06 09:18 | 45.12320 | 11.86648 | 5920 ft | 240 kts | 42° |
| 2026-05-06 09:19 | 45.13569 | 11.88218 | 5792 ft | 240 kts | 41° |
| 2026-05-06 09:19 | 45.14816 | 11.89785 | 5659 ft | 239 kts | 42° |
| 2026-05-06 09:19 | 45.16053 | 11.91340 | 5536 ft | 238 kts | 42° |
| 2026-05-06 09:19 | 45.17298 | 11.92905 | 5411 ft | 238 kts | 42° |
| 2026-05-06 09:20 | 45.18533 | 11.94460 | 5284 ft | 237 kts | 42° |
| 2026-05-06 09:20 | 45.19766 | 11.96014 | 5161 ft | 237 kts | 43° |
| 2026-05-06 09:20 | 45.20997 | 11.97568 | 5034 ft | 236 kts | 42° |
| 2026-05-06 09:20 | 45.22232 | 11.99107 | 4912 ft | 236 kts | 43° |
| 2026-05-06 09:21 | 45.23461 | 12.00653 | 4790 ft | 236 kts | 43° |
| 2026-05-06 09:21 | 45.24681 | 12.02200 | 4664 ft | 235 kts | 43° |
| 2026-05-06 09:21 | 45.25878 | 12.03719 | 4522 ft | 224 kts | 43° |
| 2026-05-06 09:21 | 45.27018 | 12.05165 | 4391 ft | 217 kts | 43° |
| 2026-05-06 09:22 | 45.28132 | 12.06582 | 4263 ft | 214 kts | 43° |
| 2026-05-06 09:22 | 45.29236 | 12.07985 | 4176 ft | 215 kts | 43° |
| 2026-05-06 09:22 | 45.30343 | 12.09393 | 4036 ft | 213 kts | 43° |
| 2026-05-06 09:22 | 45.31437 | 12.10785 | 3954 ft | 211 kts | 43° |
| 2026-05-06 09:23 | 45.32540 | 12.12190 | 3835 ft | 212 kts | 43° |
| 2026-05-06 09:23 | 45.33639 | 12.13591 | 3665 ft | 213 kts | 44° |
| 2026-05-06 09:23 | 45.34741 | 12.14995 | 3512 ft | 211 kts | 44° |
| 2026-05-06 09:23 | 45.35830 | 12.16384 | 3332 ft | 209 kts | 44° |
| 2026-05-06 09:24 | 45.36907 | 12.17758 | 3213 ft | 207 kts | 44° |
| 2026-05-06 09:24 | 45.37992 | 12.19143 | 3015 ft | 209 kts | 44° |
| 2026-05-06 09:24 | 45.39068 | 12.20518 | 2788 ft | 209 kts | 44° |
| 2026-05-06 09:24 | 45.40157 | 12.21911 | 2505 ft | 211 kts | 44° |
| 2026-05-06 09:25 | 45.41235 | 12.23289 | 2219 ft | 205 kts | 45° |
| 2026-05-06 09:25 | 45.42259 | 12.24596 | 1945 ft | 190 kts | 44° |
| 2026-05-06 09:25 | 45.43210 | 12.25813 | 1723 ft | 178 kts | 45° |
| 2026-05-06 09:25 | 45.44108 | 12.26963 | 1457 ft | 169 kts | 46° |
| 2026-05-06 09:26 | 45.44947 | 12.28039 | 1273 ft | 156 kts | 44° |
| 2026-05-06 09:26 | 45.45744 | 12.29060 | 1053 ft | 152 kts | 46° |
| 2026-05-06 09:26 | 45.46524 | 12.30062 | 837 ft | 150 kts | 45° |
| 2026-05-06 09:26 | 45.47296 | 12.31053 | 636 ft | 148 kts | 45° |
| 2026-05-06 09:27 | 45.48052 | 12.32028 | 399 ft | 145 kts | 44° |
| 2026-05-06 09:27 | 45.48794 | 12.32990 | 210 ft | 143 kts | 44° |
| 2026-05-06 09:27 | 45.49535 | 12.33932 | 27 ft | 142 kts | 43° |
| 2026-05-06 09:27 | 45.50201 | 12.34788 | 15 ft | 107 kts | 41° |
| 2026-05-06 09:28 | 45.50626 | 12.35331 | 14 ft | 57 kts | 41° |
| 2026-05-06 09:28 | 45.50803 | 12.35532 | 18 ft | 18 kts | 14° |
| 2026-05-06 09:28 | 45.50915 | 12.35564 | 17 ft | 14 kts | 13° |
| 2026-05-06 09:28 | 45.50987 | 12.35537 | 16 ft | 12 kts | 309° |
| 2026-05-06 09:29 | 45.50990 | 12.35418 | 20 ft | 12 kts | 257° |
| 2026-05-06 09:29 | 45.50967 | 12.35289 | 19 ft | 15 kts | 255° |
| 2026-05-06 09:29 | 45.50913 | 12.35150 | 19 ft | 18 kts | 224° |
| 2026-05-06 09:29 | 45.50824 | 12.35034 | 17 ft | 18 kts | 220° |
| 2026-05-06 09:30 | 45.50719 | 12.34900 | 17 ft | 22 kts | 223° |
| 2026-05-06 09:30 | 45.50633 | 12.34788 | 15 ft | 14 kts | 225° |
| 2026-05-06 09:30 | 45.50603 | 12.34656 | 15 ft | 15 kts | 269° |
| 2026-05-06 09:30 | 45.50598 | 12.34500 | 16 ft | 15 kts | 266° |
| 2026-05-06 09:31 | 45.50607 | 12.34387 | 17 ft | 12 kts | 301° |
| 2026-05-06 09:31 | 45.50667 | 12.34294 | 14 ft | 12 kts | 312° |
| 2026-05-06 09:31 | 45.50704 | 12.34230 | 13 ft | 6 kts | 308° |
| 2026-05-06 09:31 | 45.50687 | 12.34184 | 13 ft | 7 kts | 220° |
| 2026-05-06 09:32 | 45.50650 | 12.34130 | 13 ft | 4 kts | 225° |
| 2026-05-06 09:32 | 45.50643 | 12.34121 | 13 ft | 0 kts | 225° |